Time;durP1;ratioP1;P1;durP2;ratioP2;P2;SDS_P1;SDS_P2;PMS_P1;PMS_P2;Temp;Humidity;BMP_temperature;BMP_pressure;BME280_temperature;BME280_humidity;BME280_pressure;Samples;Min_cycle;Max_cycle;Signal;HPM_P1;HPM_P2
2023/08/13 00:02:05;;;;;;;;;;;;;;;19.23;100.00;96785.78;5046913;28;19946;-71
2023/08/13 00:04:31;;;;;;;;;;;;;;;19.22;100.00;96788.69;5047333;28;19963;-72
2023/08/13 00:06:57;;;;;;;;;;;;;;;19.19;100.00;96794.53;5047547;28;19961;-73
2023/08/13 00:09:22;;;;;;;;;;;;;;;19.17;100.00;96789.50;5047412;28;19959;-73
2023/08/13 00:11:48;;;;;;;;;;;;;;;19.15;100.00;96780.16;5046845;28;19966;-73
2023/08/13 00:14:14;;;;;;;;;;;;;;;19.11;100.00;96779.94;5046817;28;19959;-73
2023/08/13 00:16:40;;;;;;;;;;;;;;;19.08;100.00;96777.78;5047149;28;19968;-72
2023/08/13 00:19:06;;;;;;;;;;;;;;;19.07;100.00;96773.53;5047036;28;20024;-69
2023/08/13 00:21:32;;;;;;;;;;;;;;;19.05;100.00;96780.97;5046897;28;19955;-70
2023/08/13 00:23:57;;;;;;;;;;;;;;;19.05;100.00;96788.94;5046966;28;19966;-70
2023/08/13 00:26:23;;;;;;;;;;;;;;;19.03;100.00;96794.53;5046855;28;19961;-71
2023/08/13 00:28:49;;;;;;;;;;;;;;;19.02;100.00;96790.28;5046208;28;19957;-71
2023/08/13 00:31:15;;;;;;;;;;;;;;;19.03;100.00;96788.41;5046321;28;19938;-71
2023/08/13 00:33:42;;;;;;;;;;;;;;;19.02;100.00;96794.78;5046311;28;20036;-70
2023/08/13 00:36:07;;;;;;;;;;;;;;;19.02;100.00;96781.50;5046298;28;19965;-76
2023/08/13 00:38:33;;;;;;;;;;;;;;;19.02;100.00;96786.81;5046287;28;20008;-75
2023/08/13 00:40:59;;;;;;;;;;;;;;;19.02;100.00;96787.63;5046416;28;19959;-76
2023/08/13 00:43:25;;;;;;;;;;;;;;;19.03;100.00;96783.09;5046251;28;19952;-74
2023/08/13 00:45:51;;;;;;;;;;;;;;;19.04;100.00;96785.47;5046657;28;19968;-74
2023/08/13 00:48:17;;;;;;;;;;;;;;;19.04;100.00;96782.03;5046299;28;19959;-74
2023/08/13 00:50:45;;;;;;;;;;;;;;;19.05;100.00;96780.97;5046279;28;19965;-74
2023/08/13 00:53:11;;;;;;;;;;;;;;;19.06;100.00;96777.25;5046552;28;19963;-75
2023/08/13 00:55:37;;;;;;;;;;;;;;;19.05;100.00;96789.75;5046375;28;20000;-69
2023/08/13 00:58:03;;;;;;;;;;;;;;;19.08;100.00;96784.97;5045846;28;19971;-68
2023/08/13 01:00:30;;;;;;;;;;;;;;;19.08;100.00;96783.09;5046209;28;19968;-69
2023/08/13 01:02:56;;;;;;;;;;;;;;;19.09;100.00;96779.38;5046204;28;19988;-68
2023/08/13 01:05:26;;;;;;;;;;;;;;;19.10;100.00;96780.19;5045742;28;19962;-68
2023/08/13 01:07:52;;;;;;;;;;;;;;;19.10;100.00;96790.81;5045733;28;19962;-68
2023/08/13 01:10:26;;;;;;;;;;;;;;;19.10;100.00;96785.50;5045753;28;19954;-68
2023/08/13 01:12:55;;;;;;;;;;;;;;;19.11;100.00;96787.06;5046063;28;19952;-69
2023/08/13 01:15:28;;;;;;;;;;;;;;;19.11;100.00;96789.75;5045923;28;19960;-74
2023/08/13 01:17:55;;;;;;;;;;;;;;;19.11;100.00;96782.59;5045593;28;19960;-72
2023/08/13 01:20:39;;;;;;;;;;;;;;;19.11;100.00;96779.09;5045933;28;19959;-73
2023/08/13 01:23:05;;;;;;;;;;;;;;;19.12;100.00;96791.34;5045804;28;19953;-73
2023/08/13 01:25:32;;;;;;;;;;;;;;;19.10;100.00;96785.50;5045802;28;19953;-73
2023/08/13 01:28:04;;;;;;;;;;;;;;;19.08;100.00;96783.09;5045373;28;19963;-73
2023/08/13 01:30:39;;;;;;;;;;;;;;;19.07;100.00;96781.50;5045837;28;19965;-73
2023/08/13 01:33:06;;;;;;;;;;;;;;;19.06;100.00;96782.56;5045486;28;20134;-72
2023/08/13 01:35:32;;;;;;;;;;;;;;;19.05;100.00;96778.31;5045208;28;19967;-69
2023/08/13 01:37:59;;;;;;;;;;;;;;;19.03;100.00;96783.88;5045186;28;19964;-69
2023/08/13 01:40:25;;;;;;;;;;;;;;;19.00;100.00;96794.25;5045494;28;19957;-69
2023/08/13 01:42:51;;;;;;;;;;;;;;;19.00;100.00;96792.41;5045230;28;19959;-70
2023/08/13 01:45:17;;;;;;;;;;;;;;;18.96;100.00;96787.84;5045170;28;20254;-70
2023/08/13 01:47:43;;;;;;;;;;;;;;;18.91;100.00;96780.69;5044678;28;19960;-70
2023/08/13 01:50:09;;;;;;;;;;;;;;;18.89;100.00;96782.78;5044800;28;19947;-68
2023/08/13 01:52:35;;;;;;;;;;;;;;;18.87;100.00;96774.28;5044989;28;19971;-76
2023/08/13 01:55:01;;;;;;;;;;;;;;;18.87;100.00;96782.25;5045610;28;20261;-68
2023/08/13 01:57:27;;;;;;;;;;;;;;;18.88;100.00;96777.72;5044665;28;19970;-67
2023/08/13 01:59:53;;;;;;;;;;;;;;;18.89;100.00;96774.03;5045073;28;19962;-67
2023/08/13 02:02:19;;;;;;;;;;;;;;;18.88;100.00;96772.41;5044753;28;19967;-67
2023/08/13 02:04:45;;;;;;;;;;;;;;;18.86;100.00;96784.13;5044905;28;19985;-67
2023/08/13 02:07:11;;;;;;;;;;;;;;;18.88;100.00;96783.03;5044361;28;19966;-68
2023/08/13 02:09:36;;;;;;;;;;;;;;;18.88;100.00;96775.06;5044856;28;19956;-73
2023/08/13 02:12:02;;;;;;;;;;;;;;;18.89;100.00;96787.31;5044810;28;20191;-72
2023/08/13 02:14:28;;;;;;;;;;;;;;;18.87;100.00;96779.59;5044190;28;20009;-72
2023/08/13 02:16:54;;;;;;;;;;;;;;;18.87;100.00;96771.63;5044668;28;19967;-73
2023/08/13 02:19:20;;;;;;;;;;;;;;;18.88;100.00;96788.38;5044228;28;19996;-73
2023/08/13 02:21:46;;;;;;;;;;;;;;;18.88;100.00;96777.72;5044990;28;19966;-73
2023/08/13 02:24:12;;;;;;;;;;;;;;;18.86;100.00;96780.69;5044244;28;19958;-74
2023/08/13 02:26:37;;;;;;;;;;;;;;;18.86;100.00;96778.00;5044743;28;19983;-68
2023/08/13 02:29:03;;;;;;;;;;;;;;;18.86;100.00;96788.66;5044442;28;20159;-75
2023/08/13 02:31:29;;;;;;;;;;;;;;;18.85;100.00;96787.03;5044153;28;19964;-72
2023/08/13 02:33:55;;;;;;;;;;;;;;;18.83;100.00;96795.25;5044240;28;19964;-72
2023/08/13 02:36:21;;;;;;;;;;;;;;;18.82;100.00;96793.69;5043877;28;19970;-72
2023/08/13 02:38:46;;;;;;;;;;;;;;;18.81;100.00;96797.38;5044381;28;19965;-72
2023/08/13 02:41:12;;;;;;;;;;;;;;;18.82;100.00;96798.19;5044348;28;20139;-73
2023/08/13 02:43:52;;;;;;;;;;;;;;;18.82;100.00;96790.22;5044629;28;20244;-73
2023/08/13 02:46:21;;;;;;;;;;;;;;;18.80;100.00;96781.72;5043974;28;19947;-71
2023/08/13 02:48:47;;;;;;;;;;;;;;;18.79;100.00;96770.31;5044810;28;19980;-68
2023/08/13 02:51:13;;;;;;;;;;;;;;;18.78;100.00;96762.56;5043956;28;20290;-68
2023/08/13 02:53:42;;;;;;;;;;;;;;;18.75;100.00;96763.88;5043862;28;19950;-68
2023/08/13 02:56:08;;;;;;;;;;;;;;;18.75;100.00;96771.03;5043526;28;19967;-68
2023/08/13 02:58:34;;;;;;;;;;;;;;;18.77;100.00;96763.59;5044172;28;20226;-69
2023/08/13 03:01:00;;;;;;;;;;;;;;;18.76;100.00;96765.47;5044537;28;19958;-68
2023/08/13 03:03:26;;;;;;;;;;;;;;;18.75;100.00;96758.56;5044164;28;19967;-74
2023/08/13 03:05:52;;;;;;;;;;;;;;;18.73;100.00;96760.69;5044439;28;19967;-71
2023/08/13 03:08:18;;;;;;;;;;;;;;;18.74;100.00;96756.16;5044389;28;19955;-67
2023/08/13 03:10:43;;;;;;;;;;;;;;;18.74;100.00;96756.97;5044336;28;20253;-67
2023/08/13 03:13:09;;;;;;;;;;;;;;;18.74;100.00;96750.84;5044262;28;19954;-69
2023/08/13 03:15:35;;;;;;;;;;;;;;;18.74;100.00;96753.50;5043776;28;19943;-68
2023/08/13 03:18:01;;;;;;;;;;;;;;;18.74;100.00;96743.69;5044338;28;19961;-68
2023/08/13 03:20:27;;;;;;;;;;;;;;;18.74;100.00;96748.19;5044291;28;19962;-69
2023/08/13 03:22:52;;;;;;;;;;;;;;;18.75;100.00;96755.09;5043679;28;19971;-73
2023/08/13 03:25:18;;;;;;;;;;;;;;;18.74;100.00;96759.63;5044957;28;19982;-70
2023/08/13 03:27:46;;;;;;;;;;;;;;;18.74;100.00;96749.00;5047707;28;20247;-70
2023/08/13 03:30:12;;;;;;;;;;;;;;;18.74;100.00;96749.00;5047692;28;19953;-70
2023/08/13 03:32:37;;;;;;;;;;;;;;;18.74;100.00;96746.34;5047648;28;19970;-71
2023/08/13 03:35:03;;;;;;;;;;;;;;;18.74;100.00;96741.03;5047959;28;20282;-70
2023/08/13 03:37:29;;;;;;;;;;;;;;;18.75;100.00;96736.50;5047080;28;19973;-69
2023/08/13 03:39:55;;;;;;;;;;;;;;;18.74;100.00;96738.38;5047639;28;19963;-70
2023/08/13 03:42:21;;;;;;;;;;;;;;;18.75;100.00;96733.84;5047588;28;19959;-73
2023/08/13 03:44:47;;;;;;;;;;;;;;;18.74;100.00;96738.38;5047478;28;20007;-69
2023/08/13 03:47:12;;;;;;;;;;;;;;;18.74;100.00;96735.72;5047426;28;19975;-70
2023/08/13 03:49:38;;;;;;;;;;;;;;;18.74;100.00;96734.91;5047676;28;19958;-70
2023/08/13 03:52:04;;;;;;;;;;;;;;;18.74;100.00;96743.69;5047671;28;19959;-69
2023/08/13 03:54:30;;;;;;;;;;;;;;;18.74;100.00;96748.19;5046991;28;19980;-69
2023/08/13 03:56:56;;;;;;;;;;;;;;;18.73;100.00;96750.06;5047010;28;19967;-69
2023/08/13 03:59:22;;;;;;;;;;;;;;;18.72;100.00;96748.44;5047078;28;19956;-73
2023/08/13 04:01:48;;;;;;;;;;;;;;;18.71;100.00;96741.56;5047388;28;20290;-69
2023/08/13 04:04:14;;;;;;;;;;;;;;;18.71;100.00;96748.72;5047016;28;19967;-69
2023/08/13 04:06:39;;;;;;;;;;;;;;;18.71;100.00;96749.53;5047098;28;19993;-70
2023/08/13 04:09:05;;;;;;;;;;;;;;;18.71;100.00;96752.19;5047069;28;19963;-69
2023/08/13 04:11:31;;;;;;;;;;;;;;;18.70;100.00;96747.91;5047046;28;19973;-69
2023/08/13 04:13:57;;;;;;;;;;;;;;;18.71;100.00;96757.50;5047058;28;20003;-70
2023/08/13 04:16:23;;;;;;;;;;;;;;;18.71;100.00;96759.34;5046426;28;19966;-70
2023/08/13 04:18:50;;;;;;;;;;;;;;;18.71;100.00;96754.84;5046936;28;20289;-69
2023/08/13 04:21:16;;;;;;;;;;;;;;;18.71;100.00;96746.06;5047043;28;19955;-69
2023/08/13 04:23:42;;;;;;;;;;;;;;;18.69;100.00;96746.34;5046296;28;19957;-70
2023/08/13 04:26:08;;;;;;;;;;;;;;;18.67;100.00;96743.94;5046544;28;20001;-70
2023/08/13 04:28:34;;;;;;;;;;;;;;;18.68;100.00;96750.03;5046422;28;19959;-69
2023/08/13 04:31:00;;;;;;;;;;;;;;;18.67;100.00;96762.53;5046481;28;19958;-70
2023/08/13 04:33:25;;;;;;;;;;;;;;;18.69;100.00;96780.06;5046815;28;19959;-69
2023/08/13 04:35:53;;;;;;;;;;;;;;;18.67;100.00;96798.94;5046690;28;20192;-78
2023/08/13 04:38:19;;;;;;;;;;;;;;;18.65;100.00;96807.16;5046010;28;20025;-73
2023/08/13 04:40:48;;;;;;;;;;;;;;;18.63;100.00;96795.19;5046451;28;19968;-72
2023/08/13 04:43:15;;;;;;;;;;;;;;;18.61;100.00;96790.13;5046541;28;19953;-72
2023/08/13 04:45:44;;;;;;;;;;;;;;;18.61;100.00;96794.66;5046014;28;19942;-73
2023/08/13 04:48:10;;;;;;;;;;;;;;;18.61;100.00;96786.69;5046135;28;20141;-73
2023/08/13 04:50:35;;;;;;;;;;;;;;;18.53;100.00;96779.22;5046510;28;19954;-73
2023/08/13 04:53:01;;;;;;;;;;;;;;;18.43;100.00;96785.28;5046109;28;20161;-73
2023/08/13 04:55:27;;;;;;;;;;;;;;;18.40;100.00;96780.50;5046540;28;19952;-68
2023/08/13 04:57:53;;;;;;;;;;;;;;;18.43;100.00;96772.00;5046066;28;20007;-73
2023/08/13 05:00:19;;;;;;;;;;;;;;;18.42;100.00;96771.22;5046089;28;20014;-74
2023/08/13 05:02:45;;;;;;;;;;;;;;;18.43;100.00;96766.69;5046059;28;20026;-74
2023/08/13 05:05:10;;;;;;;;;;;;;;;18.47;100.00;96767.78;5046074;28;19962;-74
2023/08/13 05:07:36;;;;;;;;;;;;;;;18.49;100.00;96765.66;5028374;28;19998;-72
2023/08/13 05:10:02;;;;;;;;;;;;;;;18.53;100.00;96765.94;5046063;28;19959;-74
2023/08/13 05:12:28;;;;;;;;;;;;;;;18.56;100.00;96763.56;5046019;28;19961;-69
2023/08/13 05:14:54;;;;;;;;;;;;;;;18.59;100.00;96759.59;5045523;28;19958;-76
2023/08/13 05:17:20;;;;;;;;;;;;;;;18.61;100.00;96766.22;5045651;28;19974;-73
2023/08/13 05:19:46;;;;;;;;;;;;;;;18.64;100.00;96767.56;5045744;28;19953;-72
2023/08/13 05:22:12;;;;;;;;;;;;;;;18.64;100.00;96776.31;5045714;28;19984;-72
2023/08/13 05:24:38;;;;;;;;;;;;;;;18.67;100.00;96767.06;5045498;28;20236;-72
2023/08/13 05:27:04;;;;;;;;;;;;;;;18.69;100.00;96772.06;5045941;28;20234;-72
2023/08/13 05:29:30;;;;;;;;;;;;;;;18.70;100.00;96773.69;5045486;28;19963;-72
2023/08/13 05:31:56;;;;;;;;;;;;;;;18.71;100.00;96773.44;5045556;28;19963;-69
2023/08/13 05:34:21;;;;;;;;;;;;;;;18.72;100.00;96771.56;5045079;28;19960;-68
2023/08/13 05:36:47;;;;;;;;;;;;;;;18.73;100.00;96773.97;5045390;28;19957;-68
2023/08/13 05:39:13;;;;;;;;;;;;;;;18.74;100.00;96775.56;5045652;28;19973;-68
2023/08/13 05:41:39;;;;;;;;;;;;;;;18.71;100.00;96762.00;5045464;28;19972;-67
2023/08/13 05:44:05;;;;;;;;;;;;;;;18.68;100.00;96755.34;5045403;28;19960;-68
2023/08/13 05:46:32;;;;;;;;;;;;;;;18.69;100.00;96772.91;5044891;28;19977;-68
2023/08/13 05:48:58;;;;;;;;;;;;;;;18.70;100.00;96779.78;5044108;28;20274;-69
2023/08/13 05:51:23;;;;;;;;;;;;;;;18.72;100.00;96776.88;5044972;28;19966;-74
2023/08/13 05:53:49;;;;;;;;;;;;;;;18.74;100.00;96782.75;5044921;28;19965;-73
2023/08/13 05:56:15;;;;;;;;;;;;;;;18.75;100.00;96781.66;5045198;28;20148;-73
2023/08/13 05:58:41;;;;;;;;;;;;;;;18.76;100.00;96791.25;5045112;28;20231;-72
2023/08/13 06:01:07;;;;;;;;;;;;;;;18.78;100.00;96799.75;5045050;28;19959;-73
2023/08/13 06:03:33;;;;;;;;;;;;;;;18.77;100.00;96793.66;5044402;28;19958;-73
2023/08/13 06:05:59;;;;;;;;;;;;;;;18.78;100.00;96783.81;5044703;28;19961;-72
2023/08/13 06:08:24;;;;;;;;;;;;;;;18.75;100.00;96782.47;5044768;28;19965;-66
2023/08/13 06:10:50;;;;;;;;;;;;;;;18.76;100.00;96781.41;5044881;28;19967;-72
2023/08/13 06:13:16;;;;;;;;;;;;;;;18.77;100.00;96780.38;5044894;28;19962;-72
2023/08/13 06:15:42;;;;;;;;;;;;;;;18.79;100.00;96780.09;5044548;28;19938;-71
2023/08/13 06:18:08;;;;;;;;;;;;;;;18.79;100.00;96778.28;5044728;28;19969;-71
2023/08/13 06:20:34;;;;;;;;;;;;;;;18.82;100.00;96788.38;5044387;28;19966;-71
2023/08/13 06:22:59;;;;;;;;;;;;;;;18.83;100.00;96789.16;5044175;28;20040;-71
2023/08/13 06:25:25;;;;;;;;;;;;;;;18.83;100.00;96783.84;5044450;28;19957;-71
2023/08/13 06:27:51;;;;;;;;;;;;;;;18.83;100.00;96787.28;5044654;28;20237;-72
2023/08/13 06:30:17;;;;;;;;;;;;;;;18.84;100.00;96782.78;5044496;28;19962;-73
2023/08/13 06:32:43;;;;;;;;;;;;;;;18.82;100.00;96790.22;5044472;28;19964;-73
2023/08/13 06:35:09;;;;;;;;;;;;;;;18.85;100.00;96792.34;5044488;28;20004;-73
2023/08/13 06:37:35;;;;;;;;;;;;;;;18.83;100.00;96792.59;5044270;28;19967;-73
2023/08/13 06:40:00;;;;;;;;;;;;;;;18.83;100.00;96787.28;5044314;28;19981;-72
2023/08/13 06:42:26;;;;;;;;;;;;;;;18.84;100.00;96790.78;5044282;28;19970;-73
2023/08/13 06:44:52;;;;;;;;;;;;;;;18.82;100.00;96796.34;5043707;28;20017;-69
2023/08/13 06:47:18;;;;;;;;;;;;;;;18.81;100.00;96784.09;5043836;28;20260;-74
2023/08/13 06:49:44;;;;;;;;;;;;;;;18.82;100.00;96790.22;5026973;28;19963;-73
2023/08/13 06:52:10;;;;;;;;;;;;;;;18.83;100.00;96778.53;5043944;28;19964;-73
2023/08/13 06:54:36;;;;;;;;;;;;;;;18.83;100.00;96768.69;5044111;28;19956;-73
2023/08/13 06:57:01;;;;;;;;;;;;;;;18.86;100.00;96778.00;5044130;28;19966;-73
2023/08/13 06:59:27;;;;;;;;;;;;;;;18.86;100.00;96784.13;5044172;28;19953;-72
2023/08/13 07:01:53;;;;;;;;;;;;;;;18.89;100.00;96788.09;5048162;28;19958;-72
2023/08/13 07:04:19;;;;;;;;;;;;;;;18.92;100.00;96787.59;5048288;28;19962;-67
2023/08/13 07:06:45;;;;;;;;;;;;;;;18.95;100.00;96789.72;5048254;28;20005;-73
2023/08/13 07:09:11;;;;;;;;;;;;;;;19.00;100.00;96796.91;5048380;28;19986;-73
2023/08/13 07:11:37;;;;;;;;;;;;;;;19.05;100.00;96791.59;5048135;28;19964;-72
2023/08/13 07:14:05;;;;;;;;;;;;;;;19.04;100.00;96801.41;5047679;28;19994;-73
2023/08/13 07:16:31;;;;;;;;;;;;;;;19.07;100.00;96810.75;5048106;28;20230;-74
2023/08/13 07:19:00;;;;;;;;;;;;;;;19.06;100.00;96801.16;5048116;28;19971;-74
2023/08/13 07:21:26;;;;;;;;;;;;;;;19.10;100.00;96791.59;5047692;28;19959;-72
2023/08/13 07:23:52;;;;;;;;;;;;;;;19.13;100.00;96793.75;5047668;28;19965;-68
2023/08/13 07:26:18;;;;;;;;;;;;;;;19.17;100.00;96794.00;5047712;28;19957;-78
2023/08/13 07:28:44;;;;;;;;;;;;;;;19.21;100.00;96795.88;5047732;28;20279;-78
2023/08/13 07:31:10;;;;;;;;;;;;;;;19.32;100.00;96791.38;5047811;28;19955;-78
2023/08/13 07:33:36;;;;;;;;;;;;;;;19.55;100.00;96791.88;5047825;28;19997;-78
2023/08/13 07:36:02;;;;;;;;;;;;;;;19.72;100.00;96789.78;5047674;28;19998;-78
2023/08/13 07:38:28;;;;;;;;;;;;;;;19.89;100.00;96786.06;5047520;28;19976;-78
2023/08/13 07:40:58;;;;;;;;;;;;;;;20.01;100.00;96791.84;5047727;28;19960;-69
2023/08/13 07:43:24;;;;;;;;;;;;;;;20.11;100.00;96804.34;5047462;28;19948;-72
2023/08/13 07:45:50;;;;;;;;;;;;;;;20.11;100.00;96793.72;5047540;28;20033;-71
2023/08/13 07:48:17;;;;;;;;;;;;;;;20.10;100.00;96787.59;5029883;28;20240;-72
2023/08/13 07:50:43;;;;;;;;;;;;;;;20.29;100.00;96787.81;5047637;28;19963;-71
2023/08/13 07:53:09;;;;;;;;;;;;;;;20.36;100.00;96784.84;5047155;28;19964;-72
2023/08/13 07:55:35;;;;;;;;;;;;;;;20.36;100.00;96790.16;5047474;28;19970;-72
2023/08/13 07:58:01;;;;;;;;;;;;;;;20.36;100.00;96787.50;5047526;28;19965;-69
2023/08/13 08:00:26;;;;;;;;;;;;;;;20.34;100.00;96782.44;5047208;28;20034;-70
2023/08/13 08:02:53;;;;;;;;;;;;;;;20.33;100.00;96780.06;5046783;28;20009;-66
2023/08/13 08:05:19;;;;;;;;;;;;;;;20.35;100.00;96772.59;5047403;28;19962;-67
2023/08/13 08:07:45;;;;;;;;;;;;;;;20.44;100.00;96774.41;5047303;28;19967;-67
2023/08/13 08:10:12;;;;;;;;;;;;;;;20.78;100.00;96776.41;5047339;28;20086;-67
2023/08/13 08:12:37;;;;;;;;;;;;;;;20.99;100.00;96785.09;5045982;28;19956;-67
2023/08/13 08:15:05;;;;;;;;;;;;;;;21.04;100.00;96785.06;5047392;28;19976;-66
2023/08/13 08:17:31;;;;;;;;;;;;;;;21.04;100.00;96789.59;5029402;28;20283;-66
2023/08/13 08:19:59;;;;;;;;;;;;;;;21.02;100.00;96781.06;5046720;28;19967;-66
2023/08/13 08:22:25;;;;;;;;;;;;;;;21.02;100.00;96784.56;5046862;28;19961;-67
2023/08/13 08:24:51;;;;;;;;;;;;;;;21.02;100.00;96773.88;5046669;28;20112;-67
2023/08/13 08:27:17;;;;;;;;;;;;;;;21.03;100.00;96769.34;5046883;28;19958;-66
2023/08/13 08:29:43;;;;;;;;;;;;;;;21.04;100.00;96771.75;5046638;28;20238;-67
2023/08/13 08:32:09;;;;;;;;;;;;;;;21.07;100.00;96765.03;5046449;28;19965;-66
2023/08/13 08:34:35;;;;;;;;;;;;;;;21.10;100.00;96769.81;5046732;28;19960;-65
2023/08/13 08:37:03;;;;;;;;;;;;;;;21.11;100.00;96768.75;5046617;28;20148;-72
2023/08/13 08:39:29;;;;;;;;;;;;;;;21.16;100.00;96775.91;5046671;28;20153;-73
2023/08/13 08:41:55;;;;;;;;;;;;;;;21.19;100.00;96783.38;5046892;28;20023;-73
2023/08/13 08:44:21;;;;;;;;;;;;;;;21.21;100.00;96776.69;5046401;28;19967;-74
2023/08/13 08:46:49;;;;;;;;;;;;;;;21.22;100.00;96780.94;5046734;28;19958;-72
2023/08/13 08:49:16;;;;;;;;;;;;;;;21.33;100.00;96778.19;5046105;28;19959;-73
2023/08/13 08:51:42;;;;;;;;;;;;;;;21.37;100.00;96773.91;5045779;28;20158;-73
2023/08/13 08:54:07;;;;;;;;;;;;;;;21.37;100.00;96774.69;5046093;28;19964;-70
2023/08/13 08:56:33;;;;;;;;;;;;;;;21.36;100.00;96773.09;5045961;28;19993;-70
2023/08/13 08:58:59;;;;;;;;;;;;;;;21.38;100.00;96767.50;5045957;28;19977;-70
2023/08/13 09:01:25;;;;;;;;;;;;;;;21.57;100.00;96759.63;5046046;28;19963;-70
2023/08/13 09:03:51;;;;;;;;;;;;;;;21.92;100.00;96755.00;5046137;28;19979;-70
2023/08/13 09:06:17;;;;;;;;;;;;;;;22.25;100.00;96772.03;5046122;28;20162;-70
2023/08/13 09:08:43;;;;;;;;;;;;;;;22.48;100.00;96767.75;5046131;28;19971;-70
2023/08/13 09:11:09;;;;;;;;;;;;;;;22.55;100.00;96765.50;5046015;28;19960;-70
2023/08/13 09:13:35;;;;;;;;;;;;;;;22.55;100.00;96749.47;5046253;28;19969;-71
2023/08/13 09:16:00;;;;;;;;;;;;;;;22.60;100.00;96752.09;5045586;28;20053;-66
2023/08/13 09:18:26;;;;;;;;;;;;;;;22.79;100.00;96759.34;5045399;28;19969;-67
2023/08/13 09:20:52;;;;;;;;;;;;;;;22.99;100.00;96753.69;5045809;28;19952;-66
2023/08/13 09:23:22;;;;;;;;;;;;;;;23.10;100.00;96747.16;5045790;28;19960;-67
2023/08/13 09:25:52;;;;;;;;;;;;;;;23.20;100.00;96737.34;5045475;28;19959;-67
2023/08/13 09:28:18;;;;;;;;;;;;;;;23.27;100.00;96737.78;5045702;28;19961;-67
2023/08/13 09:30:46;;;;;;;;;;;;;;;23.25;100.00;96732.72;5044963;28;20203;-70
2023/08/13 09:33:15;;;;;;;;;;;;;;;23.37;100.00;96716.22;5045513;28;19961;-70
2023/08/13 09:35:42;;;;;;;;;;;;;;;23.51;100.00;96718.91;5045603;28;19961;-70
2023/08/13 09:38:08;;;;;;;;;;;;;;;23.62;100.00;96708.81;5045332;28;19964;-70
2023/08/13 09:40:34;;;;;;;;;;;;;;;23.73;100.00;96704.88;5045397;28;19946;-70
2023/08/13 09:43:06;;;;;;;;;;;;;;;23.72;100.00;96703.28;5027591;28;20153;-68
2023/08/13 09:45:32;;;;;;;;;;;;;;;23.70;100.00;96713.50;5044950;28;19963;-68
2023/08/13 09:48:02;;;;;;;;;;;;;;;23.82;100.00;96702.34;5045442;28;19957;-72
2023/08/13 09:50:28;;;;;;;;;;;;;;;23.97;100.00;96707.38;5045837;28;20142;-74
2023/08/13 09:52:56;;;;;;;;;;;;;;;24.21;100.00;96704.50;5045041;28;19968;-74
2023/08/13 09:55:23;;;;;;;;;;;;;;;24.41;100.00;96691.78;5044990;28;20150;-74
2023/08/13 09:57:50;;;;;;;;;;;;;;;24.37;100.00;96677.38;5044986;28;19974;-74
2023/08/13 10:00:16;;;;;;;;;;;;;;;24.31;100.00;96685.50;5045084;28;19962;-75
2023/08/13 10:02:42;;;;;;;;;;;;;;;24.34;100.00;96702.91;5045156;28;19981;-74
2023/08/13 10:05:09;;;;;;;;;;;;;;;24.52;100.00;96688.56;5045036;28;19955;-74
2023/08/13 10:07:36;;;;;;;;;;;;;;;24.64;100.00;96684.59;5044791;28;19946;-71
2023/08/13 10:10:03;;;;;;;;;;;;;;;24.64;100.00;96681.91;5045056;28;19959;-69
2023/08/13 10:12:30;;;;;;;;;;;;;;;24.60;100.00;96683.59;5044480;28;19959;-68
2023/08/13 10:14:57;;;;;;;;;;;;;;;24.50;100.00;96687.28;5044533;28;19964;-68
2023/08/13 10:17:23;;;;;;;;;;;;;;;24.53;100.00;96684.03;5044519;28;20231;-69
2023/08/13 10:19:50;;;;;;;;;;;;;;;24.73;100.00;96687.34;5044664;28;19968;-72
2023/08/13 10:22:22;;;;;;;;;;;;;;;24.83;100.00;96682.53;5044235;28;19951;-70
2023/08/13 10:24:48;;;;;;;;;;;;;;;24.98;100.00;96684.06;5044870;28;19961;-69
2023/08/13 10:27:14;;;;;;;;;;;;;;;25.22;100.00;96686.47;5044674;28;19969;-71
2023/08/13 10:29:41;;;;;;;;;;;;;;;25.46;100.00;96683.44;5044667;28;19956;-73
2023/08/13 10:32:13;;;;;;;;;;;;;;;25.63;100.00;96685.41;5044855;28;19958;-74
2023/08/13 10:34:53;;;;;;;;;;;;;;;25.75;100.00;96668.72;5044375;28;19962;-73
2023/08/13 10:37:20;;;;;;;;;;;;;;;25.82;100.00;96650.25;5044613;28;20139;-74
2023/08/13 10:39:47;;;;;;;;;;;;;;;25.83;100.00;96669.84;5044182;28;19962;-74
2023/08/13 10:42:33;;;;;;;;;;;;;;;25.81;100.00;96659.41;5043953;28;20287;-74
2023/08/13 10:45:03;;;;;;;;;;;;;;;25.86;100.00;96651.19;5044632;28;19954;-72
2023/08/13 10:47:43;;;;;;;;;;;;;;;25.94;100.00;96655.06;5045227;28;19967;-73
2023/08/13 10:50:18;;;;;;;;;;;;;;;25.89;100.00;96660.56;5044398;28;19962;-73
2023/08/13 10:52:52;;;;;;;;;;;;;;;26.12;100.00;96661.25;5043956;28;19964;-71
2023/08/13 10:55:18;;;;;;;;;;;;;;;26.33;100.00;96653.38;5044428;28;20111;-71
2023/08/13 10:57:48;;;;;;;;;;;;;;;26.55;100.00;96654.38;5043836;28;19982;-71
2023/08/13 11:00:14;;;;;;;;;;;;;;;26.68;100.00;96654.22;5044015;28;20240;-71
2023/08/13 11:02:43;;;;;;;;;;;;;;;26.74;100.00;96644.09;5044196;28;19998;-74
2023/08/13 11:05:09;;;;;;;;;;;;;;;26.94;100.00;96653.41;5044157;28;19959;-75
2023/08/13 11:07:35;;;;;;;;;;;;;;;27.08;100.00;96637.88;5044161;28;20055;-75
2023/08/13 11:10:02;;;;;;;;;;;;;;;27.11;100.00;96647.22;5044269;28;19960;-74
2023/08/13 11:12:29;;;;;;;;;;;;;;;26.98;96.42;96626.66;5043290;28;20021;-75
2023/08/13 11:14:58;;;;;;;;;;;;;;;26.82;100.00;96654.06;5044231;28;19963;-74
2023/08/13 11:17:24;;;;;;;;;;;;;;;26.70;100.00;96668.16;5043724;28;20170;-75
2023/08/13 11:19:54;;;;;;;;;;;;;;;26.58;96.20;96643.78;5043204;28;19957;-74
2023/08/13 11:22:20;;;;;;;;;;;;;;;26.49;100.00;96669.84;5044406;28;19959;-74
2023/08/13 11:24:46;;;;;;;;;;;;;;;26.35;98.53;96645.78;5044080;28;19958;-69
2023/08/13 11:27:12;;;;;;;;;;;;;;;26.27;96.53;96635.81;5044259;28;20009;-70
2023/08/13 11:29:38;;;;;;;;;;;;;;;26.28;100.00;96653.53;5043771;28;19956;-70
2023/08/13 11:32:04;;;;;;;;;;;;;;;26.33;98.25;96631.88;5043536;28;20155;-70
2023/08/13 11:34:30;;;;;;;;;;;;;;;26.38;98.77;96642.50;5043860;28;19957;-71
2023/08/13 11:36:56;;;;;;;;;;;;;;;26.45;100.00;96650.88;5043946;28;20296;-70
2023/08/13 11:39:23;;;;;;;;;;;;;;;26.44;97.77;96638.53;5043932;28;19970;-74
2023/08/13 11:41:50;;;;;;;;;;;;;;;26.36;98.82;96644.69;5044069;28;20249;-73
2023/08/13 11:44:16;;;;;;;;;;;;;;;26.29;100.00;96644.34;5043456;28;19945;-74
2023/08/13 11:46:54;;;;;;;;;;;;;;;26.37;100.00;96645.47;5045989;28;20230;-73
2023/08/13 11:49:20;;;;;;;;;;;;;;;26.53;99.87;96639.31;5047734;28;19955;-73
2023/08/13 11:51:46;;;;;;;;;;;;;;;26.56;99.74;96637.88;5046936;28;19959;-73
2023/08/13 11:54:12;;;;;;;;;;;;;;;26.52;100.00;96631.56;5047237;28;19961;-73
2023/08/13 11:56:38;;;;;;;;;;;;;;;26.57;100.00;96634.13;5047143;28;20035;-73
2023/08/13 11:59:07;;;;;;;;;;;;;;;26.65;100.00;96636.03;5047164;28;20177;-72
2023/08/13 12:01:34;;;;;;;;;;;;;;;26.67;99.18;96622.28;5047250;28;19953;-72
2023/08/13 12:04:02;;;;;;;;;;;;;;;26.81;100.00;96619.41;5047341;28;20191;-72
2023/08/13 12:06:28;;;;;;;;;;;;;;;26.91;96.29;96601.00;5047304;28;19960;-72
2023/08/13 12:08:55;;;;;;;;;;;;;;;27.02;96.98;96608.75;5047154;28;19961;-73
2023/08/13 12:11:21;;;;;;;;;;;;;;;27.05;96.30;96603.53;5047261;28;19947;-72
2023/08/13 12:13:47;;;;;;;;;;;;;;;27.00;95.12;96603.69;5047222;28;20288;-73
2023/08/13 12:16:13;;;;;;;;;;;;;;;26.95;95.15;96611.16;5047093;28;19959;-73
2023/08/13 12:18:39;;;;;;;;;;;;;;;26.91;96.51;96619.06;5046598;28;19968;-71
2023/08/13 12:21:05;;;;;;;;;;;;;;;26.80;92.19;96609.75;5046596;28;19956;-71
2023/08/13 12:23:31;;;;;;;;;;;;;;;26.79;93.67;96621.63;5046936;28;19961;-71
2023/08/13 12:25:58;;;;;;;;;;;;;;;27.00;92.31;96608.28;5046663;28;19954;-70
2023/08/13 12:28:23;;;;;;;;;;;;;;;27.14;87.42;96573.88;5046619;28;19960;-72
2023/08/13 12:30:49;;;;;;;;;;;;;;;27.31;92.98;96603.47;5046833;28;19958;-70
2023/08/13 12:33:15;;;;;;;;;;;;;;;27.54;91.99;96600.53;5028679;28;20156;-70
2023/08/13 12:35:41;;;;;;;;;;;;;;;27.79;86.35;96569.19;5046715;28;20114;-68